createdAt,value
2018-11-03T00:00:55.723Z,86.10
2018-11-03T00:03:25.332Z,86.00
2018-11-03T00:05:54.626Z,86.00
2018-11-03T00:08:23.566Z,86.10
2018-11-03T00:10:53.003Z,86.30
2018-11-03T00:13:22.157Z,86.00
2018-11-03T00:15:51.263Z,86.70
2018-11-03T00:18:20.597Z,87.00
2018-11-03T00:20:49.795Z,86.80
2018-11-03T00:23:21.158Z,86.80
2018-11-03T00:25:50.442Z,86.90
2018-11-03T00:28:19.754Z,86.70
2018-11-03T00:30:51.017Z,86.70
2018-11-03T00:33:20.340Z,87.00
2018-11-03T00:35:49.636Z,86.80
2018-11-03T00:38:18.959Z,87.20
2018-11-03T00:40:48.187Z,87.10
2018-11-03T00:43:17.163Z,87.20
2018-11-03T00:45:46.162Z,87.60
2018-11-03T00:48:15.330Z,87.80
2018-11-03T00:50:44.575Z,87.80
2018-11-03T00:53:13.406Z,87.80
2018-11-03T00:55:42.781Z,87.40
2018-11-03T00:58:11.960Z,88.00
2018-11-03T01:00:41.304Z,88.20
2018-11-03T01:03:10.904Z,87.90
2018-11-03T01:05:42.059Z,87.40
2018-11-03T01:08:11.308Z,87.70
2018-11-03T01:10:40.440Z,88.20
2018-11-03T01:13:09.655Z,88.40
2018-11-03T01:15:38.788Z,87.70
2018-11-03T01:18:07.973Z,87.20
2018-11-03T01:20:37.243Z,87.60
2018-11-03T01:23:06.470Z,87.70
2018-11-03T01:25:35.785Z,87.40
2018-11-03T01:28:05.218Z,87.40
2018-11-03T01:30:34.410Z,87.50
2018-11-03T01:33:03.313Z,87.50
2018-11-03T01:35:32.463Z,87.80
2018-11-03T01:38:01.740Z,87.60
2018-11-03T01:40:31.025Z,87.60
2018-11-03T01:43:00.404Z,87.10
2018-11-03T01:45:29.433Z,87.40
2018-11-03T01:47:58.265Z,87.60
2018-11-03T01:50:27.553Z,87.30
2018-11-03T01:52:56.434Z,87.50
2018-11-03T01:55:25.231Z,87.70
2018-11-03T01:57:54.224Z,87.50
2018-11-03T02:00:23.117Z,87.30
2018-11-03T02:02:51.866Z,87.40
2018-11-03T02:05:20.815Z,87.40
2018-11-03T02:07:49.974Z,87.80
2018-11-03T02:10:19.194Z,87.80
2018-11-03T02:12:48.397Z,87.60
2018-11-03T02:15:17.630Z,87.60
2018-11-03T02:17:46.852Z,87.50
2018-11-03T02:20:18.142Z,87.70
2018-11-03T02:22:47.346Z,87.80
2018-11-03T02:25:16.209Z,87.80
2018-11-03T02:27:45.112Z,87.90
2018-11-03T02:30:13.918Z,87.80
2018-11-03T02:32:43.948Z,88.00
2018-11-03T02:35:13.074Z,87.90
2018-11-03T02:37:42.497Z,88.00
2018-11-03T02:40:12.934Z,87.80
2018-11-03T02:42:43.036Z,87.90
2018-11-03T02:45:12.519Z,87.90
2018-11-03T02:47:42.002Z,87.90
2018-11-03T02:50:13.140Z,87.80
2018-11-03T02:52:42.787Z,87.80
2018-11-03T02:55:12.041Z,88.00
2018-11-03T02:57:41.235Z,88.50
2018-11-03T03:00:11.469Z,88.30
2018-11-03T03:02:40.761Z,88.10
2018-11-03T03:05:10.977Z,88.20
2018-11-03T03:07:40.278Z,88.30
2018-11-03T03:10:10.990Z,88.00
2018-11-03T03:12:40.218Z,87.90
2018-11-03T03:15:10.902Z,88.30
2018-11-03T03:17:40.153Z,88.30
2018-11-03T03:20:10.877Z,88.40
2018-11-03T03:22:40.366Z,88.30
2018-11-03T03:25:11.539Z,88.40
2018-11-03T03:27:40.672Z,88.30
2018-11-03T03:30:09.957Z,88.40
2018-11-03T03:32:38.924Z,88.40
2018-11-03T03:35:07.883Z,88.00
2018-11-03T03:37:36.847Z,88.10
2018-11-03T03:40:06.674Z,88.10
2018-11-03T03:42:35.504Z,88.10
2018-11-03T03:45:04.656Z,88.30
2018-11-03T03:47:34.013Z,88.20
2018-11-03T03:50:05.815Z,88.20
2018-11-03T03:52:34.755Z,88.40
2018-11-03T03:55:03.836Z,88.20
2018-11-03T03:57:32.794Z,88.40
2018-11-03T04:00:01.869Z,88.40
2018-11-03T04:02:30.931Z,88.20
2018-11-03T04:05:00.146Z,88.10
2018-11-03T04:07:29.393Z,88.20
2018-11-03T04:09:58.573Z,88.30
2018-11-03T04:12:27.643Z,88.40
2018-11-03T04:14:56.617Z,88.40
2018-11-03T04:17:25.768Z,88.50
2018-11-03T04:19:54.861Z,88.30
2018-11-03T04:22:23.777Z,88.50
2018-11-03T04:24:52.937Z,88.50
2018-11-03T04:27:22.599Z,88.40
2018-11-03T04:29:51.748Z,88.40
2018-11-03T04:32:20.960Z,88.50
2018-11-03T04:34:49.968Z,88.40
2018-11-03T04:37:19.249Z,88.70
2018-11-03T04:39:48.440Z,88.60
2018-11-03T04:42:17.591Z,88.60
2018-11-03T04:44:46.804Z,88.70
2018-11-03T04:47:15.951Z,88.60
2018-11-03T04:49:45.249Z,88.70
2018-11-03T04:52:14.357Z,88.70
2018-11-03T04:54:43.567Z,89.10
2018-11-03T04:57:12.602Z,89.20
2018-11-03T04:59:41.827Z,89.10
2018-11-03T05:02:14.986Z,89.10
2018-11-03T05:04:44.399Z,89.50
2018-11-03T05:07:13.754Z,89.70
2018-11-03T05:09:42.866Z,89.50
2018-11-03T05:12:12.235Z,89.50
2018-11-03T05:14:41.526Z,89.40
2018-11-03T05:17:11.899Z,89.10
2018-11-03T05:19:40.921Z,89.10
2018-11-03T05:22:10.114Z,89.30
2018-11-03T05:24:39.291Z,89.50
2018-11-03T05:27:08.497Z,89.40
2018-11-03T05:29:37.723Z,89.30
2018-11-03T05:32:07.411Z,88.90
2018-11-03T05:34:36.671Z,89.00
2018-11-03T05:37:06.115Z,89.10
2018-11-03T05:39:35.521Z,89.00
2018-11-03T05:42:04.675Z,89.00
2018-11-03T05:44:33.873Z,89.10
2018-11-03T05:47:02.898Z,89.40
2018-11-03T05:49:31.916Z,89.10
2018-11-03T05:52:01.473Z,89.00
2018-11-03T05:54:31.141Z,89.20
2018-11-03T05:57:00.273Z,89.10
2018-11-03T05:59:29.267Z,89.20
2018-11-03T06:01:58.483Z,89.00
2018-11-03T06:04:27.609Z,89.10
2018-11-03T06:06:56.827Z,89.10
2018-11-03T06:09:26.947Z,89.20
2018-11-03T06:11:56.174Z,89.40
2018-11-03T06:14:25.324Z,89.50
2018-11-03T06:16:54.359Z,89.30
2018-11-03T06:19:23.660Z,89.30
2018-11-03T06:22:05.020Z,89.30
2018-11-03T06:24:33.932Z,89.40
2018-11-03T06:27:03.088Z,89.50
2018-11-03T06:29:32.248Z,89.30
2018-11-03T06:32:01.537Z,89.10
2018-11-03T06:34:30.646Z,89.30
2018-11-03T06:37:03.381Z,89.30
2018-11-03T06:39:32.446Z,89.10
2018-11-03T06:42:01.869Z,89.50
2018-11-03T06:44:33.364Z,89.70
2018-11-03T06:47:02.478Z,89.60
2018-11-03T06:49:31.746Z,89.40
2018-11-03T06:52:02.146Z,89.40
2018-11-03T06:54:32.249Z,89.30
2018-11-03T06:57:03.792Z,89.30
2018-11-03T06:59:35.062Z,89.30
2018-11-03T07:02:05.583Z,89.30
2018-11-03T07:04:45.257Z,89.40
2018-11-03T07:07:14.431Z,89.30
2018-11-03T07:09:44.704Z,89.30
2018-11-03T07:12:14.005Z,89.30
2018-11-03T07:14:45.040Z,89.30
2018-11-03T07:17:22.198Z,89.60
2018-11-03T07:19:51.502Z,89.50
2018-11-03T07:22:20.799Z,89.30
2018-11-03T07:24:50.114Z,89.20
2018-11-03T07:27:24.320Z,89.20
2018-11-03T07:29:53.720Z,89.30
2018-11-03T07:32:22.769Z,89.30
2018-11-03T07:34:55.953Z,89.30
2018-11-03T07:37:25.360Z,89.80
2018-11-03T07:39:54.556Z,89.50
2018-11-03T07:42:23.816Z,89.60
2018-11-03T07:45:09.473Z,89.60
2018-11-03T07:47:40.133Z,89.00
2018-11-03T07:50:12.396Z,89.40
2018-11-03T07:52:42.215Z,89.60
2018-11-03T07:55:15.529Z,89.40
2018-11-03T07:57:55.055Z,89.60
2018-11-03T08:00:24.415Z,89.70
2018-11-03T08:02:58.358Z,89.40
2018-11-03T08:05:31.247Z,89.30
2018-11-03T08:08:04.379Z,89.60
2018-11-03T08:10:33.744Z,89.10
2018-11-03T08:13:02.895Z,89.00
2018-11-03T08:15:32.465Z,89.40
2018-11-03T08:18:01.559Z,89.30
2018-11-03T08:20:30.787Z,89.60
2018-11-03T08:23:01.140Z,89.60
2018-11-03T08:25:30.361Z,89.40
2018-11-03T08:27:59.526Z,90.00
2018-11-03T08:30:28.767Z,89.90
2018-11-03T08:32:58.007Z,89.90
2018-11-03T08:35:27.361Z,90.10
2018-11-03T08:37:56.605Z,89.70
2018-11-03T08:40:25.904Z,90.20
2018-11-03T08:42:55.222Z,89.40
2018-11-03T08:45:24.380Z,88.90
2018-11-03T08:47:54.375Z,89.00
2018-11-03T08:50:29.337Z,88.30
2018-11-03T08:52:58.493Z,88.20
2018-11-03T08:55:27.982Z,88.40
2018-11-03T08:57:57.277Z,88.30
2018-11-03T09:00:26.738Z,88.70
2018-11-03T09:02:55.991Z,87.80
2018-11-03T09:05:26.398Z,89.20
2018-11-03T09:07:55.732Z,88.80
2018-11-03T09:10:24.942Z,88.80
2018-11-03T09:12:53.989Z,88.90
2018-11-03T09:15:23.403Z,89.70
2018-11-03T09:17:52.673Z,89.80
2018-11-03T09:20:21.835Z,90.30
2018-11-03T09:22:51.379Z,89.20
2018-11-03T09:25:20.443Z,89.70
2018-11-03T09:27:49.613Z,89.10
2018-11-03T09:30:19.419Z,89.00
2018-11-03T09:32:51.957Z,89.30
2018-11-03T09:35:21.410Z,88.30
2018-11-03T09:37:53.489Z,89.00
2018-11-03T09:40:23.623Z,88.90
2018-11-03T09:42:53.185Z,89.40
2018-11-03T09:45:23.972Z,89.60
2018-11-03T09:47:54.715Z,90.70
2018-11-03T09:50:30.879Z,90.10
2018-11-03T09:53:01.532Z,89.80
2018-11-03T09:55:33.021Z,90.00
2018-11-03T09:58:03.325Z,90.30
2018-11-03T10:00:35.186Z,90.40
2018-11-03T10:03:07.614Z,90.60
2018-11-03T10:05:39.141Z,91.20
2018-11-03T10:08:09.090Z,90.00
2018-11-03T10:10:41.909Z,89.80
2018-11-03T10:13:16.115Z,90.50
2018-11-03T10:15:45.632Z,90.90
2018-11-03T10:18:18.715Z,89.90
2018-11-03T10:20:51.944Z,90.10
2018-11-03T10:23:23.601Z,89.60
2018-11-03T10:25:58.575Z,90.00
2018-11-03T10:28:30.702Z,90.70
2018-11-03T10:31:01.592Z,90.20
2018-11-03T10:33:33.793Z,90.50
2018-11-03T10:36:03.839Z,89.80
2018-11-03T10:38:34.039Z,89.70
2018-11-03T10:41:10.361Z,89.30
2018-11-03T10:43:43.333Z,89.90
2018-11-03T10:46:17.563Z,89.80
2018-11-03T10:48:53.118Z,89.00
2018-11-03T10:51:28.607Z,89.30
2018-11-03T10:54:03.291Z,89.40
2018-11-03T10:56:38.187Z,88.40
2018-11-03T10:59:08.987Z,88.20
2018-11-03T11:01:45.050Z,87.60
2018-11-03T11:04:22.739Z,87.70
2018-11-03T11:06:59.191Z,87.40
2018-11-03T11:09:34.556Z,87.50
2018-11-03T11:12:13.373Z,86.90
2018-11-03T11:14:44.535Z,87.00
2018-11-03T11:17:13.670Z,86.90
2018-11-03T11:19:42.845Z,86.30
2018-11-03T11:22:12.394Z,85.20
2018-11-03T11:24:41.722Z,83.90
2018-11-03T11:27:14.491Z,84.00
2018-11-03T11:29:44.685Z,83.90
2018-11-03T11:32:20.037Z,84.00
2018-11-03T11:34:49.599Z,83.20
2018-11-03T11:37:19.707Z,83.10
2018-11-03T11:39:51.264Z,83.30
2018-11-03T11:42:24.084Z,83.00
2018-11-03T11:44:54.024Z,82.10
2018-11-03T11:47:31.082Z,81.30
2018-11-03T11:50:00.821Z,81.10
2018-11-03T11:52:30.401Z,79.70
2018-11-03T11:55:01.933Z,78.80
2018-11-03T11:57:31.457Z,78.50
2018-11-03T12:00:03.650Z,77.30
2018-11-03T12:02:35.695Z,79.70
2018-11-03T12:05:04.987Z,77.30
2018-11-03T12:07:34.349Z,78.90
2018-11-03T12:10:03.551Z,79.00
2018-11-03T12:12:33.128Z,78.40
2018-11-03T12:15:05.881Z,78.40
2018-11-03T12:17:36.069Z,78.50
2018-11-03T12:20:06.547Z,78.00
2018-11-03T12:22:35.611Z,77.70
2018-11-03T12:25:08.066Z,76.90
2018-11-03T12:27:40.061Z,75.40
2018-11-03T12:30:11.821Z,76.10
2018-11-03T12:32:41.656Z,75.90
2018-11-03T12:35:11.294Z,73.30
2018-11-03T12:37:44.250Z,74.70
2018-11-03T12:40:14.843Z,73.30
2018-11-03T12:42:43.868Z,74.30
2018-11-03T12:45:15.125Z,73.60
2018-11-03T12:47:44.514Z,73.00
2018-11-03T12:50:15.265Z,72.10
2018-11-03T12:52:44.532Z,73.10
2018-11-03T12:55:13.338Z,72.00
2018-11-03T12:57:42.730Z,72.60
2018-11-03T13:00:13.214Z,72.60
2018-11-03T13:02:43.419Z,72.80
2018-11-03T13:05:12.864Z,72.70
2018-11-03T13:07:42.956Z,72.30
2018-11-03T13:10:15.216Z,71.90
2018-11-03T13:12:44.574Z,71.90
2018-11-03T13:15:14.158Z,71.60
2018-11-03T13:17:55.021Z,71.00
2018-11-03T13:20:23.930Z,70.80
2018-11-03T13:22:54.226Z,69.90
2018-11-03T13:25:22.843Z,68.40
2018-11-03T13:27:57.795Z,67.70
2018-11-03T13:30:27.464Z,69.70
2018-11-03T13:32:56.517Z,69.50
2018-11-03T13:35:28.258Z,68.80
2018-11-03T13:37:59.331Z,68.80
2018-11-03T13:40:29.359Z,68.80
2018-11-03T13:42:58.513Z,68.20
2018-11-03T13:45:27.567Z,67.10
2018-11-03T13:48:02.104Z,67.70
2018-11-03T13:50:33.444Z,68.20
2018-11-03T13:53:05.378Z,68.50
2018-11-03T13:55:44.343Z,68.50
2018-11-03T13:58:16.017Z,68.10
2018-11-03T14:00:51.043Z,68.40
2018-11-03T14:03:22.356Z,67.90
2018-11-03T14:05:54.501Z,67.70
2018-11-03T14:08:25.609Z,68.30
2018-11-03T14:11:00.146Z,68.70
2018-11-03T14:13:32.387Z,68.50
2018-11-03T14:16:03.976Z,68.60
2018-11-03T14:18:33.591Z,68.90
2018-11-03T14:21:08.624Z,68.40
2018-11-03T14:23:47.809Z,68.60
2018-11-03T14:26:18.542Z,68.10
2018-11-03T14:28:50.370Z,68.50
2018-11-03T14:31:26.624Z,68.30
2018-11-03T14:33:57.795Z,67.80
2018-11-03T14:36:31.543Z,67.10
2018-11-03T14:39:06.321Z,67.20
2018-11-03T14:41:37.730Z,67.00
2018-11-03T14:44:13.970Z,67.60
2018-11-03T14:46:44.665Z,68.30
2018-11-03T14:49:20.549Z,68.60
2018-11-03T14:51:53.789Z,68.90
2018-11-03T14:54:25.509Z,69.40
2018-11-03T14:56:57.705Z,69.20
2018-11-03T14:59:40.901Z,69.50
2018-11-03T15:02:11.772Z,70.00
2018-11-03T15:04:47.667Z,70.00
2018-11-03T15:07:24.870Z,69.80
2018-11-03T15:09:55.522Z,69.80
2018-11-03T15:12:29.847Z,70.50
2018-11-03T15:15:07.318Z,70.40
2018-11-03T15:17:42.482Z,70.30
2018-11-03T15:20:14.157Z,70.90
2018-11-03T15:22:45.448Z,71.20
2018-11-03T15:25:24.089Z,71.70
2018-11-03T15:27:53.433Z,72.20
2018-11-03T15:30:26.835Z,72.80
2018-11-03T15:32:55.780Z,73.30
2018-11-03T15:35:24.581Z,73.50
2018-11-03T15:37:53.405Z,74.00
2018-11-03T15:40:22.654Z,74.30
2018-11-03T15:42:51.772Z,74.30
2018-11-03T15:45:22.028Z,74.80
2018-11-03T15:47:52.931Z,75.00
2018-11-03T15:50:21.973Z,75.30
2018-11-03T15:52:51.247Z,75.40
2018-11-03T15:55:23.246Z,75.60
2018-11-03T15:57:52.544Z,75.90
2018-11-03T16:00:23.819Z,75.90
2018-11-03T16:02:53.290Z,76.00
2018-11-03T16:05:22.528Z,76.10
2018-11-03T16:07:51.535Z,76.40
2018-11-03T16:10:20.860Z,76.30
2018-11-03T16:12:53.602Z,76.30
2018-11-03T16:15:29.349Z,76.60
2018-11-03T16:18:01.442Z,76.80
2018-11-03T16:20:37.784Z,76.80
2018-11-03T16:23:06.512Z,76.80
2018-11-03T16:25:35.577Z,77.00
2018-11-03T16:28:04.670Z,77.00
2018-11-03T16:30:35.918Z,77.10
2018-11-03T16:33:05.263Z,77.30
2018-11-03T16:35:34.775Z,77.50
2018-11-03T16:38:03.906Z,77.60
2018-11-03T16:40:33.050Z,77.50
2018-11-03T16:43:02.497Z,77.60
2018-11-03T16:45:36.937Z,77.60
2018-11-03T16:48:10.735Z,77.90
2018-11-03T16:50:39.992Z,78.00
2018-11-03T16:53:13.773Z,78.20
2018-11-03T16:55:42.557Z,78.40
2018-11-03T16:58:12.479Z,78.40
2018-11-03T17:00:41.356Z,78.60
2018-11-03T17:03:11.618Z,78.70
2018-11-03T17:05:40.763Z,78.70
2018-11-03T17:08:10.436Z,78.60
2018-11-03T17:10:39.784Z,78.40
2018-11-03T17:13:08.986Z,78.30
2018-11-03T17:15:38.433Z,78.30
2018-11-03T17:18:09.400Z,78.40
2018-11-03T17:20:38.565Z,78.30
2018-11-03T17:23:07.815Z,78.40
2018-11-03T17:25:36.647Z,78.60
2018-11-03T17:28:05.805Z,78.70
2018-11-03T17:30:34.706Z,78.70
2018-11-03T17:33:04.914Z,78.70
2018-11-03T17:35:33.916Z,78.60
2018-11-03T17:38:03.767Z,78.80
2018-11-03T17:40:32.876Z,78.70
2018-11-03T17:43:01.892Z,78.90
2018-11-03T17:45:33.563Z,79.00
2018-11-03T17:48:02.744Z,79.30
2018-11-03T17:50:32.003Z,79.50
2018-11-03T17:53:02.298Z,79.60
2018-11-03T17:55:32.827Z,79.60
2018-11-03T17:58:04.196Z,79.70
2018-11-03T18:00:34.617Z,79.80
2018-11-03T18:03:09.158Z,79.80
2018-11-03T18:05:38.361Z,80.00
2018-11-03T18:08:08.254Z,79.90
2018-11-03T18:10:39.933Z,79.90
2018-11-03T18:13:11.022Z,80.00
2018-11-03T18:15:40.277Z,80.00
2018-11-03T18:18:10.130Z,79.90
2018-11-03T18:20:39.247Z,79.90
2018-11-03T18:23:08.530Z,79.90
2018-11-03T18:25:37.487Z,79.90
2018-11-03T18:28:09.409Z,80.10
2018-11-03T18:30:39.234Z,80.00
2018-11-03T18:33:09.695Z,80.00
2018-11-03T18:35:42.807Z,80.20
2018-11-03T18:38:12.226Z,80.30
2018-11-03T18:40:41.154Z,80.40
2018-11-03T18:43:10.113Z,80.70
2018-11-03T18:45:39.426Z,80.40
2018-11-03T18:48:08.721Z,80.40
2018-11-03T18:50:38.388Z,80.60
2018-11-03T18:53:08.246Z,80.60
2018-11-03T18:55:37.215Z,80.50
2018-11-03T18:58:06.592Z,80.70
2018-11-03T19:00:35.696Z,80.70
2018-11-03T19:03:04.950Z,80.80
2018-11-03T19:05:34.381Z,80.70
2018-11-03T19:08:03.994Z,80.90
2018-11-03T19:10:33.730Z,80.90
2018-11-03T19:13:03.218Z,81.10
2018-11-03T19:15:32.579Z,81.20
2018-11-03T19:18:06.494Z,81.20
2018-11-03T19:20:37.010Z,81.40
2018-11-03T19:23:10.855Z,81.30
2018-11-03T19:25:39.968Z,81.30
2018-11-03T19:28:09.251Z,81.40
2018-11-03T19:30:38.668Z,81.30
2018-11-03T19:33:08.110Z,81.40
2018-11-03T19:35:37.591Z,81.70
2018-11-03T19:38:07.028Z,81.70
2018-11-03T19:40:36.672Z,81.80
2018-11-03T19:43:07.581Z,81.80
2018-11-03T19:45:38.798Z,81.70
2018-11-03T19:48:16.497Z,82.10
2018-11-03T19:50:50.681Z,82.20
2018-11-03T19:53:23.146Z,82.10
2018-11-03T19:55:59.552Z,82.20
2018-11-03T19:58:31.038Z,82.30
2018-11-03T20:01:00.531Z,82.40
2018-11-03T20:03:30.075Z,82.20
2018-11-03T20:06:00.570Z,82.20
2018-11-03T20:08:35.865Z,82.60
2018-11-03T20:11:05.142Z,82.90
2018-11-03T20:13:34.771Z,82.90
2018-11-03T20:16:04.322Z,83.00
2018-11-03T20:18:33.729Z,82.90
2018-11-03T20:21:03.000Z,83.00
2018-11-03T20:24:16.311Z,83.00
2018-11-03T20:26:47.829Z,82.90
2018-11-03T20:29:19.288Z,83.10
2018-11-03T20:31:53.843Z,82.90
2018-11-03T20:34:25.164Z,83.30
2018-11-03T20:36:55.243Z,83.30
2018-11-03T20:39:24.671Z,83.50
2018-11-03T20:42:00.895Z,83.40
2018-11-03T20:44:31.465Z,83.60
2018-11-03T20:47:01.819Z,83.70
2018-11-03T20:49:35.904Z,83.50
2018-11-03T20:52:07.422Z,83.50
2018-11-03T20:54:36.780Z,83.70
2018-11-03T20:57:06.297Z,83.80
2018-11-03T20:59:35.466Z,83.90
2018-11-03T21:02:08.845Z,84.10
2018-11-03T21:04:38.456Z,84.10
2018-11-03T21:07:07.983Z,84.10
2018-11-03T21:09:38.068Z,84.10
2018-11-03T21:12:07.676Z,84.30
2018-11-03T21:14:44.988Z,84.20
2018-11-03T21:17:18.533Z,84.10
2018-11-03T21:19:47.799Z,84.30
2018-11-03T21:22:17.123Z,84.30
2018-11-03T21:24:46.546Z,84.60
2018-11-03T21:27:16.104Z,84.60
2018-11-03T21:29:48.937Z,84.60
2018-11-03T21:32:18.586Z,84.70
2018-11-03T21:34:47.853Z,84.60
2018-11-03T21:37:17.422Z,84.60
2018-11-03T21:39:46.841Z,84.60
2018-11-03T21:42:16.328Z,84.80
2018-11-03T21:44:45.513Z,84.90
2018-11-03T21:47:15.100Z,84.90
2018-11-03T21:49:48.093Z,84.90
2018-11-03T21:52:17.644Z,84.90
2018-11-03T21:54:50.492Z,84.70
2018-11-03T21:57:19.950Z,85.20
2018-11-03T21:59:49.403Z,85.30
2018-11-03T22:02:18.696Z,85.40
2018-11-03T22:04:48.174Z,85.40
2018-11-03T22:07:20.877Z,85.40
2018-11-03T22:09:50.254Z,85.40
2018-11-03T22:12:20.912Z,85.30
2018-11-03T22:14:53.463Z,85.40
2018-11-03T22:17:22.695Z,85.30
2018-11-03T22:19:56.561Z,85.30
2018-11-03T22:22:25.688Z,85.30
2018-11-03T22:24:58.505Z,85.30
2018-11-03T22:27:28.209Z,85.40
2018-11-03T22:29:57.528Z,85.40
2018-11-03T22:32:26.773Z,85.70
2018-11-03T22:34:56.092Z,85.60
2018-11-03T22:37:26.232Z,85.50
2018-11-03T22:39:55.666Z,85.60
2018-11-03T22:42:25.232Z,85.60
2018-11-03T22:44:57.991Z,85.40
2018-11-03T22:47:27.445Z,85.70
2018-11-03T22:49:58.918Z,85.30
2018-11-03T22:52:28.147Z,85.60
2018-11-03T22:54:57.314Z,85.60
2018-11-03T22:57:26.583Z,85.70
2018-11-03T22:59:56.085Z,85.50
2018-11-03T23:02:25.338Z,85.80
2018-11-03T23:04:54.898Z,85.70
2018-11-03T23:07:24.215Z,85.80
2018-11-03T23:09:53.621Z,85.80
2018-11-03T23:12:23.185Z,85.80
2018-11-03T23:14:58.885Z,85.80
2018-11-03T23:17:28.107Z,85.80
2018-11-03T23:19:57.859Z,85.60
2018-11-03T23:22:27.091Z,85.70
2018-11-03T23:24:56.430Z,85.60
2018-11-03T23:27:25.879Z,85.80
2018-11-03T23:29:55.361Z,85.80
2018-11-03T23:32:24.372Z,85.70
2018-11-03T23:34:53.732Z,85.80
2018-11-03T23:37:22.993Z,86.00
2018-11-03T23:39:52.319Z,85.80
2018-11-03T23:42:21.487Z,86.00
2018-11-03T23:44:50.791Z,85.80
2018-11-03T23:47:19.994Z,86.10
2018-11-03T23:49:49.237Z,86.00
2018-11-03T23:52:22.763Z,86.00
2018-11-03T23:54:51.992Z,86.10
2018-11-03T23:57:21.089Z,86.20
2018-11-03T23:59:53.458Z,86.10
